sensor_id;sensor_type;location;lat;lon;timestamp;temperature;humidity
7512;DHT22;9999;48.780;9.146;2023-08-07T00:02:01;11.70;99.90
7512;DHT22;9999;48.780;9.146;2023-08-07T00:04:28;11.70;99.90
7512;DHT22;9999;48.780;9.146;2023-08-07T00:06:55;11.70;99.90
7512;DHT22;9999;48.780;9.146;2023-08-07T00:09:22;11.70;99.90
7512;DHT22;9999;48.780;9.146;2023-08-07T00:11:49;11.60;99.90
7512;DHT22;9999;48.780;9.146;2023-08-07T00:14:16;11.60;99.90
7512;DHT22;9999;48.780;9.146;2023-08-07T00:16:44;11.60;99.90
7512;DHT22;9999;48.780;9.146;2023-08-07T00:19:11;11.60;99.90
7512;DHT22;9999;48.780;9.146;2023-08-07T00:21:38;11.50;99.90
7512;DHT22;9999;48.780;9.146;2023-08-07T00:24:05;11.50;99.90
7512;DHT22;9999;48.780;9.146;2023-08-07T00:26:31;11.50;99.90
7512;DHT22;9999;48.780;9.146;2023-08-07T00:28:58;11.50;99.90
7512;DHT22;9999;48.780;9.146;2023-08-07T00:31:25;11.50;99.90
7512;DHT22;9999;48.780;9.146;2023-08-07T00:33:54;11.50;99.90
7512;DHT22;9999;48.780;9.146;2023-08-07T00:36:22;11.50;99.90
7512;DHT22;9999;48.780;9.146;2023-08-07T00:38:50;11.50;99.90
7512;DHT22;9999;48.780;9.146;2023-08-07T00:41:17;11.60;99.90
7512;DHT22;9999;48.780;9.146;2023-08-07T00:43:44;11.60;99.90
7512;DHT22;9999;48.780;9.146;2023-08-07T00:46:11;11.60;99.90
7512;DHT22;9999;48.780;9.146;2023-08-07T00:48:38;11.60;99.90
7512;DHT22;9999;48.780;9.146;2023-08-07T00:51:06;11.60;99.90
7512;DHT22;9999;48.780;9.146;2023-08-07T00:53:37;11.60;99.90
7512;DHT22;9999;48.780;9.146;2023-08-07T00:56:04;11.60;99.90
7512;DHT22;9999;48.780;9.146;2023-08-07T00:58:31;11.60;99.90
7512;DHT22;9999;48.780;9.146;2023-08-07T01:00:59;11.60;99.90
7512;DHT22;9999;48.780;9.146;2023-08-07T01:03:25;11.60;99.90
7512;DHT22;9999;48.780;9.146;2023-08-07T01:05:52;11.60;99.90
7512;DHT22;9999;48.780;9.146;2023-08-07T01:08:20;11.60;99.90
7512;DHT22;9999;48.780;9.146;2023-08-07T01:10:56;11.60;99.90
7512;DHT22;9999;48.780;9.146;2023-08-07T01:13:32;11.60;99.90
7512;DHT22;9999;48.780;9.146;2023-08-07T01:16:04;11.60;99.90
7512;DHT22;9999;48.780;9.146;2023-08-07T01:18:34;11.70;99.90
7512;DHT22;9999;48.780;9.146;2023-08-07T01:21:03;11.70;99.90
7512;DHT22;9999;48.780;9.146;2023-08-07T01:23:31;11.70;99.90
7512;DHT22;9999;48.780;9.146;2023-08-07T01:25:58;11.70;99.90
7512;DHT22;9999;48.780;9.146;2023-08-07T01:28:27;11.70;99.90
7512;DHT22;9999;48.780;9.146;2023-08-07T01:30:57;11.70;99.90
7512;DHT22;9999;48.780;9.146;2023-08-07T01:33:30;11.70;99.90
7512;DHT22;9999;48.780;9.146;2023-08-07T01:36:01;11.70;99.90
7512;DHT22;9999;48.780;9.146;2023-08-07T01:38:30;11.70;99.90
7512;DHT22;9999;48.780;9.146;2023-08-07T01:40:58;11.70;99.90
7512;DHT22;9999;48.780;9.146;2023-08-07T01:43:27;11.70;99.90
7512;DHT22;9999;48.780;9.146;2023-08-07T01:45:53;11.70;99.90
7512;DHT22;9999;48.780;9.146;2023-08-07T01:48:20;11.60;99.90
7512;DHT22;9999;48.780;9.146;2023-08-07T01:50:47;11.70;99.90
7512;DHT22;9999;48.780;9.146;2023-08-07T01:53:14;11.60;99.90
7512;DHT22;9999;48.780;9.146;2023-08-07T01:55:42;11.60;99.90
7512;DHT22;9999;48.780;9.146;2023-08-07T01:58:09;11.70;99.90
7512;DHT22;9999;48.780;9.146;2023-08-07T02:00:36;11.70;99.90
7512;DHT22;9999;48.780;9.146;2023-08-07T02:03:03;11.70;99.90
7512;DHT22;9999;48.780;9.146;2023-08-07T02:05:29;11.70;99.90
7512;DHT22;9999;48.780;9.146;2023-08-07T02:07:56;11.70;99.90
7512;DHT22;9999;48.780;9.146;2023-08-07T02:10:23;11.60;99.90
7512;DHT22;9999;48.780;9.146;2023-08-07T02:12:52;11.60;99.90
7512;DHT22;9999;48.780;9.146;2023-08-07T02:15:18;11.60;99.90
7512;DHT22;9999;48.780;9.146;2023-08-07T02:17:50;11.60;99.90
7512;DHT22;9999;48.780;9.146;2023-08-07T02:20:17;11.60;99.90
7512;DHT22;9999;48.780;9.146;2023-08-07T02:22:44;11.70;99.90
7512;DHT22;9999;48.780;9.146;2023-08-07T02:25:10;11.70;99.90
7512;DHT22;9999;48.780;9.146;2023-08-07T02:27:37;11.60;99.90
7512;DHT22;9999;48.780;9.146;2023-08-07T02:30:07;11.70;99.90
7512;DHT22;9999;48.780;9.146;2023-08-07T02:32:34;11.70;99.90
7512;DHT22;9999;48.780;9.146;2023-08-07T02:35:01;11.70;99.90
7512;DHT22;9999;48.780;9.146;2023-08-07T02:37:27;11.60;99.90
7512;DHT22;9999;48.780;9.146;2023-08-07T02:39:54;11.70;99.90
7512;DHT22;9999;48.780;9.146;2023-08-07T02:42:21;11.70;99.90
7512;DHT22;9999;48.780;9.146;2023-08-07T02:44:48;11.60;99.90
7512;DHT22;9999;48.780;9.146;2023-08-07T02:47:16;11.60;99.90
7512;DHT22;9999;48.780;9.146;2023-08-07T02:49:43;11.50;99.90
7512;DHT22;9999;48.780;9.146;2023-08-07T02:52:09;11.50;99.90
7512;DHT22;9999;48.780;9.146;2023-08-07T02:54:36;11.60;99.90
7512;DHT22;9999;48.780;9.146;2023-08-07T02:57:03;11.60;99.90
7512;DHT22;9999;48.780;9.146;2023-08-07T02:59:30;11.60;99.90
7512;DHT22;9999;48.780;9.146;2023-08-07T03:01:57;11.60;99.90
7512;DHT22;9999;48.780;9.146;2023-08-07T03:04:25;11.50;99.90
7512;DHT22;9999;48.780;9.146;2023-08-07T03:06:52;11.50;99.90
7512;DHT22;9999;48.780;9.146;2023-08-07T03:09:20;11.40;99.90
7512;DHT22;9999;48.780;9.146;2023-08-07T03:11:47;11.40;99.90
7512;DHT22;9999;48.780;9.146;2023-08-07T03:14:13;11.40;99.90
7512;DHT22;9999;48.780;9.146;2023-08-07T03:16:40;11.40;99.90
7512;DHT22;9999;48.780;9.146;2023-08-07T03:19:07;11.40;99.90
7512;DHT22;9999;48.780;9.146;2023-08-07T03:21:35;11.40;99.90
7512;DHT22;9999;48.780;9.146;2023-08-07T03:24:02;11.30;99.90
7512;DHT22;9999;48.780;9.146;2023-08-07T03:26:29;11.40;99.90
7512;DHT22;9999;48.780;9.146;2023-08-07T03:28:55;11.30;99.90
7512;DHT22;9999;48.780;9.146;2023-08-07T03:31:22;11.30;99.90
7512;DHT22;9999;48.780;9.146;2023-08-07T03:33:50;11.30;99.90
7512;DHT22;9999;48.780;9.146;2023-08-07T03:36:18;11.30;99.90
7512;DHT22;9999;48.780;9.146;2023-08-07T03:38:46;11.30;99.90
7512;DHT22;9999;48.780;9.146;2023-08-07T03:41:13;11.40;99.90
7512;DHT22;9999;48.780;9.146;2023-08-07T03:43:41;11.40;99.90
7512;DHT22;9999;48.780;9.146;2023-08-07T03:46:08;11.40;99.90
7512;DHT22;9999;48.780;9.146;2023-08-07T03:48:34;11.40;99.90
7512;DHT22;9999;48.780;9.146;2023-08-07T03:51:03;11.40;99.90
7512;DHT22;9999;48.780;9.146;2023-08-07T03:53:31;11.40;99.90
7512;DHT22;9999;48.780;9.146;2023-08-07T03:55:59;11.30;99.90
7512;DHT22;9999;48.780;9.146;2023-08-07T03:58:26;11.40;99.90
7512;DHT22;9999;48.780;9.146;2023-08-07T04:00:53;11.30;99.90
7512;DHT22;9999;48.780;9.146;2023-08-07T04:03:20;11.30;99.90
7512;DHT22;9999;48.780;9.146;2023-08-07T04:05:51;11.30;99.90
7512;DHT22;9999;48.780;9.146;2023-08-07T04:08:18;11.30;99.90
7512;DHT22;9999;48.780;9.146;2023-08-07T04:10:56;11.20;99.90
7512;DHT22;9999;48.780;9.146;2023-08-07T04:13:25;11.30;99.90
7512;DHT22;9999;48.780;9.146;2023-08-07T04:15:52;11.30;99.90
7512;DHT22;9999;48.780;9.146;2023-08-07T04:18:20;11.30;99.90
7512;DHT22;9999;48.780;9.146;2023-08-07T04:20:49;11.30;99.90
7512;DHT22;9999;48.780;9.146;2023-08-07T04:23:16;11.30;99.90
7512;DHT22;9999;48.780;9.146;2023-08-07T04:25:44;11.20;99.90
7512;DHT22;9999;48.780;9.146;2023-08-07T04:28:11;11.30;99.90
7512;DHT22;9999;48.780;9.146;2023-08-07T04:30:40;11.20;99.90
7512;DHT22;9999;48.780;9.146;2023-08-07T04:33:07;11.20;99.90
7512;DHT22;9999;48.780;9.146;2023-08-07T04:35:34;11.20;99.90
7512;DHT22;9999;48.780;9.146;2023-08-07T04:38:01;11.20;99.90
7512;DHT22;9999;48.780;9.146;2023-08-07T04:40:28;11.30;99.90
7512;DHT22;9999;48.780;9.146;2023-08-07T04:42:55;11.30;99.90
7512;DHT22;9999;48.780;9.146;2023-08-07T04:45:23;11.30;99.90
7512;DHT22;9999;48.780;9.146;2023-08-07T04:47:51;11.30;99.90
7512;DHT22;9999;48.780;9.146;2023-08-07T04:50:18;11.30;99.90
7512;DHT22;9999;48.780;9.146;2023-08-07T04:52:44;11.40;99.90
7512;DHT22;9999;48.780;9.146;2023-08-07T04:55:11;11.40;99.90
7512;DHT22;9999;48.780;9.146;2023-08-07T04:57:38;11.50;99.90
7512;DHT22;9999;48.780;9.146;2023-08-07T05:00:06;11.50;99.90
7512;DHT22;9999;48.780;9.146;2023-08-07T05:02:33;11.50;99.90
7512;DHT22;9999;48.780;9.146;2023-08-07T05:05:02;11.50;99.90
7512;DHT22;9999;48.780;9.146;2023-08-07T05:07:30;11.50;99.90
7512;DHT22;9999;48.780;9.146;2023-08-07T05:09:59;11.50;99.90
7512;DHT22;9999;48.780;9.146;2023-08-07T05:12:26;11.50;99.90
7512;DHT22;9999;48.780;9.146;2023-08-07T05:14:52;11.60;99.90
7512;DHT22;9999;48.780;9.146;2023-08-07T05:17:19;11.60;99.90
7512;DHT22;9999;48.780;9.146;2023-08-07T05:19:46;11.60;99.90
7512;DHT22;9999;48.780;9.146;2023-08-07T05:22:15;11.60;99.90
7512;DHT22;9999;48.780;9.146;2023-08-07T05:24:42;11.60;99.90
7512;DHT22;9999;48.780;9.146;2023-08-07T05:27:10;11.70;99.90
7512;DHT22;9999;48.780;9.146;2023-08-07T05:29:37;11.70;99.90
7512;DHT22;9999;48.780;9.146;2023-08-07T05:32:09;11.80;99.90
7512;DHT22;9999;48.780;9.146;2023-08-07T05:34:36;11.80;99.90
7512;DHT22;9999;48.780;9.146;2023-08-07T05:37:03;11.80;99.90
7512;DHT22;9999;48.780;9.146;2023-08-07T05:39:32;11.80;99.90
7512;DHT22;9999;48.780;9.146;2023-08-07T05:41:58;11.80;99.90
7512;DHT22;9999;48.780;9.146;2023-08-07T05:44:25;11.90;99.90
7512;DHT22;9999;48.780;9.146;2023-08-07T05:46:52;11.90;99.90
7512;DHT22;9999;48.780;9.146;2023-08-07T05:49:21;12.00;99.90
7512;DHT22;9999;48.780;9.146;2023-08-07T05:51:48;12.10;99.90
7512;DHT22;9999;48.780;9.146;2023-08-07T05:54:15;12.10;99.90
7512;DHT22;9999;48.780;9.146;2023-08-07T05:56:43;12.10;99.90
7512;DHT22;9999;48.780;9.146;2023-08-07T05:59:10;12.10;99.90
7512;DHT22;9999;48.780;9.146;2023-08-07T06:01:37;12.10;99.90
7512;DHT22;9999;48.780;9.146;2023-08-07T06:04:04;12.20;99.90
7512;DHT22;9999;48.780;9.146;2023-08-07T06:06:30;12.20;99.90
7512;DHT22;9999;48.780;9.146;2023-08-07T06:09:00;12.30;99.90
7512;DHT22;9999;48.780;9.146;2023-08-07T06:11:27;12.30;99.90
7512;DHT22;9999;48.780;9.146;2023-08-07T06:13:55;12.40;99.90
7512;DHT22;9999;48.780;9.146;2023-08-07T06:16:22;12.40;99.90
7512;DHT22;9999;48.780;9.146;2023-08-07T06:18:49;12.40;99.90
7512;DHT22;9999;48.780;9.146;2023-08-07T06:21:15;12.40;99.90
7512;DHT22;9999;48.780;9.146;2023-08-07T06:23:42;12.40;99.90
7512;DHT22;9999;48.780;9.146;2023-08-07T06:26:09;12.50;99.90
7512;DHT22;9999;48.780;9.146;2023-08-07T06:28:36;12.60;99.90
7512;DHT22;9999;48.780;9.146;2023-08-07T06:31:05;12.60;99.90
7512;DHT22;9999;48.780;9.146;2023-08-07T06:33:33;12.50;99.90
7512;DHT22;9999;48.780;9.146;2023-08-07T06:36:00;12.60;99.90
7512;DHT22;9999;48.780;9.146;2023-08-07T06:38:27;12.60;99.90
7512;DHT22;9999;48.780;9.146;2023-08-07T06:40:53;12.60;99.90
7512;DHT22;9999;48.780;9.146;2023-08-07T06:43:23;12.70;99.90
7512;DHT22;9999;48.780;9.146;2023-08-07T06:45:50;12.70;99.90
7512;DHT22;9999;48.780;9.146;2023-08-07T06:48:18;12.80;99.90
7512;DHT22;9999;48.780;9.146;2023-08-07T06:50:46;12.90;99.90
7512;DHT22;9999;48.780;9.146;2023-08-07T06:53:13;13.00;99.90
7512;DHT22;9999;48.780;9.146;2023-08-07T06:55:41;13.10;99.90
7512;DHT22;9999;48.780;9.146;2023-08-07T06:58:07;13.20;99.90
7512;DHT22;9999;48.780;9.146;2023-08-07T07:00:34;13.20;99.90
7512;DHT22;9999;48.780;9.146;2023-08-07T07:03:02;13.30;99.90
7512;DHT22;9999;48.780;9.146;2023-08-07T07:05:31;13.30;99.90
7512;DHT22;9999;48.780;9.146;2023-08-07T07:07:58;13.30;99.90
7512;DHT22;9999;48.780;9.146;2023-08-07T07:10:25;13.30;99.90
7512;DHT22;9999;48.780;9.146;2023-08-07T07:12:52;13.40;99.90
7512;DHT22;9999;48.780;9.146;2023-08-07T07:15:18;13.40;99.90
7512;DHT22;9999;48.780;9.146;2023-08-07T07:17:45;13.40;99.90
7512;DHT22;9999;48.780;9.146;2023-08-07T07:20:12;13.40;99.90
7512;DHT22;9999;48.780;9.146;2023-08-07T07:22:40;13.40;99.90
7512;DHT22;9999;48.780;9.146;2023-08-07T07:25:08;13.40;99.90
7512;DHT22;9999;48.780;9.146;2023-08-07T07:27:35;13.40;99.90
7512;DHT22;9999;48.780;9.146;2023-08-07T07:30:02;13.40;99.90
7512;DHT22;9999;48.780;9.146;2023-08-07T07:32:28;13.50;99.90
7512;DHT22;9999;48.780;9.146;2023-08-07T07:34:55;13.50;99.90
7512;DHT22;9999;48.780;9.146;2023-08-07T07:37:22;13.40;99.90
7512;DHT22;9999;48.780;9.146;2023-08-07T07:39:51;13.40;99.90
7512;DHT22;9999;48.780;9.146;2023-08-07T07:42:18;13.30;99.90
7512;DHT22;9999;48.780;9.146;2023-08-07T07:44:44;13.30;99.90
7512;DHT22;9999;48.780;9.146;2023-08-07T07:47:11;13.40;99.90
7512;DHT22;9999;48.780;9.146;2023-08-07T07:49:38;13.50;99.90
7512;DHT22;9999;48.780;9.146;2023-08-07T07:52:05;13.60;99.90
7512;DHT22;9999;48.780;9.146;2023-08-07T07:54:32;13.60;99.90
7512;DHT22;9999;48.780;9.146;2023-08-07T07:57:00;13.70;99.90
7512;DHT22;9999;48.780;9.146;2023-08-07T07:59:27;13.70;99.90
7512;DHT22;9999;48.780;9.146;2023-08-07T08:01:54;13.80;99.90
7512;DHT22;9999;48.780;9.146;2023-08-07T08:04:21;13.80;99.90
7512;DHT22;9999;48.780;9.146;2023-08-07T08:06:48;13.80;99.90
7512;DHT22;9999;48.780;9.146;2023-08-07T08:09:15;13.90;99.90
7512;DHT22;9999;48.780;9.146;2023-08-07T08:11:42;13.80;99.90
7512;DHT22;9999;48.780;9.146;2023-08-07T08:14:10;13.70;99.90
7512;DHT22;9999;48.780;9.146;2023-08-07T08:16:37;13.70;99.90
7512;DHT22;9999;48.780;9.146;2023-08-07T08:19:04;13.70;99.90
7512;DHT22;9999;48.780;9.146;2023-08-07T08:21:32;13.70;99.90
7512;DHT22;9999;48.780;9.146;2023-08-07T08:23:59;13.60;99.90
7512;DHT22;9999;48.780;9.146;2023-08-07T08:26:26;13.60;99.90
7512;DHT22;9999;48.780;9.146;2023-08-07T08:28:53;13.60;99.90
7512;DHT22;9999;48.780;9.146;2023-08-07T08:31:21;13.70;99.90
7512;DHT22;9999;48.780;9.146;2023-08-07T08:33:49;13.80;99.90
7512;DHT22;9999;48.780;9.146;2023-08-07T08:36:16;14.00;99.90
7512;DHT22;9999;48.780;9.146;2023-08-07T08:38:43;14.10;99.90
7512;DHT22;9999;48.780;9.146;2023-08-07T08:41:11;14.30;99.90
7512;DHT22;9999;48.780;9.146;2023-08-07T08:43:38;14.30;99.90
7512;DHT22;9999;48.780;9.146;2023-08-07T08:46:08;14.40;99.90
7512;DHT22;9999;48.780;9.146;2023-08-07T08:48:38;14.50;99.90
7512;DHT22;9999;48.780;9.146;2023-08-07T08:51:06;14.70;99.90
7512;DHT22;9999;48.780;9.146;2023-08-07T08:53:35;14.80;99.90
7512;DHT22;9999;48.780;9.146;2023-08-07T08:56:02;15.00;99.90
7512;DHT22;9999;48.780;9.146;2023-08-07T08:58:29;15.10;99.90
7512;DHT22;9999;48.780;9.146;2023-08-07T09:00:56;15.20;99.90
7512;DHT22;9999;48.780;9.146;2023-08-07T09:03:23;15.40;99.90
7512;DHT22;9999;48.780;9.146;2023-08-07T09:05:57;15.60;99.90
7512;DHT22;9999;48.780;9.146;2023-08-07T09:08:27;16.00;99.90
7512;DHT22;9999;48.780;9.146;2023-08-07T09:10:55;16.10;99.90
7512;DHT22;9999;48.780;9.146;2023-08-07T09:13:23;16.10;99.90
7512;DHT22;9999;48.780;9.146;2023-08-07T09:15:51;16.00;99.90
7512;DHT22;9999;48.780;9.146;2023-08-07T09:18:18;15.90;99.90
7512;DHT22;9999;48.780;9.146;2023-08-07T09:20:45;15.80;99.90
7512;DHT22;9999;48.780;9.146;2023-08-07T09:23:14;15.70;99.90
7512;DHT22;9999;48.780;9.146;2023-08-07T09:25:42;15.70;99.90
7512;DHT22;9999;48.780;9.146;2023-08-07T09:28:09;15.70;99.90
7512;DHT22;9999;48.780;9.146;2023-08-07T09:30:37;15.70;99.90
7512;DHT22;9999;48.780;9.146;2023-08-07T09:33:03;15.60;99.90
7512;DHT22;9999;48.780;9.146;2023-08-07T09:35:31;15.70;99.90
7512;DHT22;9999;48.780;9.146;2023-08-07T09:37:59;15.70;99.90
7512;DHT22;9999;48.780;9.146;2023-08-07T09:40:27;15.80;99.90
7512;DHT22;9999;48.780;9.146;2023-08-07T09:42:56;16.10;99.90
7512;DHT22;9999;48.780;9.146;2023-08-07T09:45:24;16.20;99.90
7512;DHT22;9999;48.780;9.146;2023-08-07T09:47:59;16.20;99.90
7512;DHT22;9999;48.780;9.146;2023-08-07T09:50:26;16.10;99.90
7512;DHT22;9999;48.780;9.146;2023-08-07T09:52:54;16.10;99.90
7512;DHT22;9999;48.780;9.146;2023-08-07T09:55:23;16.10;99.90
7512;DHT22;9999;48.780;9.146;2023-08-07T09:57:52;16.00;99.90
7512;DHT22;9999;48.780;9.146;2023-08-07T10:00:19;16.10;99.90
7512;DHT22;9999;48.780;9.146;2023-08-07T10:02:47;16.40;99.90
7512;DHT22;9999;48.780;9.146;2023-08-07T10:05:15;16.40;99.90
7512;DHT22;9999;48.780;9.146;2023-08-07T10:07:42;16.50;99.90
7512;DHT22;9999;48.780;9.146;2023-08-07T10:10:09;16.80;99.90
7512;DHT22;9999;48.780;9.146;2023-08-07T10:12:37;17.00;99.90
7512;DHT22;9999;48.780;9.146;2023-08-07T10:15:06;17.20;99.90
7512;DHT22;9999;48.780;9.146;2023-08-07T10:17:33;17.30;99.90
7512;DHT22;9999;48.780;9.146;2023-08-07T10:20:00;17.60;99.90
7512;DHT22;9999;48.780;9.146;2023-08-07T10:22:30;17.50;99.90
7512;DHT22;9999;48.780;9.146;2023-08-07T10:25:00;17.30;99.90
7512;DHT22;9999;48.780;9.146;2023-08-07T10:27:29;17.10;99.90
7512;DHT22;9999;48.780;9.146;2023-08-07T10:29:58;17.00;99.90
7512;DHT22;9999;48.780;9.146;2023-08-07T10:32:27;16.80;99.90
7512;DHT22;9999;48.780;9.146;2023-08-07T10:34:55;16.60;99.90
7512;DHT22;9999;48.780;9.146;2023-08-07T10:37:41;16.60;99.90
7512;DHT22;9999;48.780;9.146;2023-08-07T10:40:09;16.40;99.90
7512;DHT22;9999;48.780;9.146;2023-08-07T10:42:52;16.40;99.90
7512;DHT22;9999;48.780;9.146;2023-08-07T10:45:19;16.20;99.90
7512;DHT22;9999;48.780;9.146;2023-08-07T10:48:01;16.10;99.90
7512;DHT22;9999;48.780;9.146;2023-08-07T10:50:29;16.10;99.90
7512;DHT22;9999;48.780;9.146;2023-08-07T10:52:56;16.00;99.90
7512;DHT22;9999;48.780;9.146;2023-08-07T10:55:23;15.90;99.90
7512;DHT22;9999;48.780;9.146;2023-08-07T10:57:50;15.90;99.90
7512;DHT22;9999;48.780;9.146;2023-08-07T11:00:21;16.00;99.90
7512;DHT22;9999;48.780;9.146;2023-08-07T11:02:48;16.10;99.90
7512;DHT22;9999;48.780;9.146;2023-08-07T11:05:18;16.10;99.90
7512;DHT22;9999;48.780;9.146;2023-08-07T11:07:45;16.20;99.90
7512;DHT22;9999;48.780;9.146;2023-08-07T11:10:13;16.30;99.90
7512;DHT22;9999;48.780;9.146;2023-08-07T11:12:41;16.30;99.90
7512;DHT22;9999;48.780;9.146;2023-08-07T11:15:12;16.20;99.90
7512;DHT22;9999;48.780;9.146;2023-08-07T11:17:39;16.20;99.90
7512;DHT22;9999;48.780;9.146;2023-08-07T11:20:09;16.20;99.90
7512;DHT22;9999;48.780;9.146;2023-08-07T11:22:39;16.10;99.90
7512;DHT22;9999;48.780;9.146;2023-08-07T11:25:07;16.20;99.90
7512;DHT22;9999;48.780;9.146;2023-08-07T11:27:39;16.00;99.90
7512;DHT22;9999;48.780;9.146;2023-08-07T11:30:11;15.90;99.90
7512;DHT22;9999;48.780;9.146;2023-08-07T11:32:38;16.00;99.90
7512;DHT22;9999;48.780;9.146;2023-08-07T11:35:06;15.90;99.90
7512;DHT22;9999;48.780;9.146;2023-08-07T11:37:34;15.70;99.90
7512;DHT22;9999;48.780;9.146;2023-08-07T11:40:03;15.70;99.90
7512;DHT22;9999;48.780;9.146;2023-08-07T11:42:30;15.60;99.90
7512;DHT22;9999;48.780;9.146;2023-08-07T11:44:57;15.50;99.90
7512;DHT22;9999;48.780;9.146;2023-08-07T11:47:24;15.40;99.90
7512;DHT22;9999;48.780;9.146;2023-08-07T11:49:52;15.50;99.90
7512;DHT22;9999;48.780;9.146;2023-08-07T11:52:19;15.40;99.90
7512;DHT22;9999;48.780;9.146;2023-08-07T11:54:47;15.40;99.90
7512;DHT22;9999;48.780;9.146;2023-08-07T11:57:17;15.40;99.90
7512;DHT22;9999;48.780;9.146;2023-08-07T11:59:48;15.30;99.90
7512;DHT22;9999;48.780;9.146;2023-08-07T12:02:15;15.30;99.90
7512;DHT22;9999;48.780;9.146;2023-08-07T12:04:42;15.40;99.90
7512;DHT22;9999;48.780;9.146;2023-08-07T12:07:09;15.40;99.90
7512;DHT22;9999;48.780;9.146;2023-08-07T12:09:36;15.50;99.90
7512;DHT22;9999;48.780;9.146;2023-08-07T12:12:05;15.50;99.90
7512;DHT22;9999;48.780;9.146;2023-08-07T12:14:33;15.60;99.90
7512;DHT22;9999;48.780;9.146;2023-08-07T12:17:02;15.70;99.90
7512;DHT22;9999;48.780;9.146;2023-08-07T12:19:38;15.70;99.90
7512;DHT22;9999;48.780;9.146;2023-08-07T12:22:06;15.70;99.90
7512;DHT22;9999;48.780;9.146;2023-08-07T12:24:35;15.70;99.90
7512;DHT22;9999;48.780;9.146;2023-08-07T12:27:02;15.70;99.90
7512;DHT22;9999;48.780;9.146;2023-08-07T12:29:29;15.70;99.90
7512;DHT22;9999;48.780;9.146;2023-08-07T12:31:57;15.80;99.90
7512;DHT22;9999;48.780;9.146;2023-08-07T12:34:26;15.80;99.90
7512;DHT22;9999;48.780;9.146;2023-08-07T12:36:53;15.90;99.90
7512;DHT22;9999;48.780;9.146;2023-08-07T12:39:20;15.80;99.90
7512;DHT22;9999;48.780;9.146;2023-08-07T12:41:47;16.00;99.90
7512;DHT22;9999;48.780;9.146;2023-08-07T12:44:15;16.00;99.90
7512;DHT22;9999;48.780;9.146;2023-08-07T12:46:42;16.10;99.90
7512;DHT22;9999;48.780;9.146;2023-08-07T12:49:10;16.40;99.90
7512;DHT22;9999;48.780;9.146;2023-08-07T12:51:37;16.70;99.90
7512;DHT22;9999;48.780;9.146;2023-08-07T12:54:03;16.70;99.90
7512;DHT22;9999;48.780;9.146;2023-08-07T12:56:30;16.70;99.90
7512;DHT22;9999;48.780;9.146;2023-08-07T12:58:57;16.70;99.90
7512;DHT22;9999;48.780;9.146;2023-08-07T13:01:24;16.80;99.90
7512;DHT22;9999;48.780;9.146;2023-08-07T13:03:52;16.80;99.90
7512;DHT22;9999;48.780;9.146;2023-08-07T13:06:20;16.90;99.90
7512;DHT22;9999;48.780;9.146;2023-08-07T13:08:47;16.90;99.90
7512;DHT22;9999;48.780;9.146;2023-08-07T13:11:14;16.90;99.90
7512;DHT22;9999;48.780;9.146;2023-08-07T13:13:41;17.00;99.90
7512;DHT22;9999;48.780;9.146;2023-08-07T13:16:07;16.90;99.90
7512;DHT22;9999;48.780;9.146;2023-08-07T13:18:34;16.80;99.90
7512;DHT22;9999;48.780;9.146;2023-08-07T13:21:01;16.70;99.90
7512;DHT22;9999;48.780;9.146;2023-08-07T13:23:29;16.60;99.90
7512;DHT22;9999;48.780;9.146;2023-08-07T13:25:56;16.40;99.90
7512;DHT22;9999;48.780;9.146;2023-08-07T13:28:23;16.40;99.90
7512;DHT22;9999;48.780;9.146;2023-08-07T13:30:50;16.50;99.90
7512;DHT22;9999;48.780;9.146;2023-08-07T13:33:17;16.50;99.90
7512;DHT22;9999;48.780;9.146;2023-08-07T13:35:45;16.60;99.90
7512;DHT22;9999;48.780;9.146;2023-08-07T13:38:12;16.60;99.90
7512;DHT22;9999;48.780;9.146;2023-08-07T13:40:41;16.70;99.90
7512;DHT22;9999;48.780;9.146;2023-08-07T13:43:09;16.70;99.90
7512;DHT22;9999;48.780;9.146;2023-08-07T13:45:37;17.00;99.90
7512;DHT22;9999;48.780;9.146;2023-08-07T13:48:04;17.10;99.90
7512;DHT22;9999;48.780;9.146;2023-08-07T13:50:31;17.10;99.90
7512;DHT22;9999;48.780;9.146;2023-08-07T13:52:58;17.10;99.90
7512;DHT22;9999;48.780;9.146;2023-08-07T13:55:25;17.00;99.90
7512;DHT22;9999;48.780;9.146;2023-08-07T13:57:54;17.00;99.90
7512;DHT22;9999;48.780;9.146;2023-08-07T14:00:21;17.00;99.90
7512;DHT22;9999;48.780;9.146;2023-08-07T14:02:48;17.00;99.90
7512;DHT22;9999;48.780;9.146;2023-08-07T14:05:15;17.00;99.90
7512;DHT22;9999;48.780;9.146;2023-08-07T14:07:41;16.90;99.90
7512;DHT22;9999;48.780;9.146;2023-08-07T14:10:08;16.80;99.90
7512;DHT22;9999;48.780;9.146;2023-08-07T14:12:35;16.90;99.90
7512;DHT22;9999;48.780;9.146;2023-08-07T14:15:04;17.00;99.90
7512;DHT22;9999;48.780;9.146;2023-08-07T14:17:30;17.20;99.90
7512;DHT22;9999;48.780;9.146;2023-08-07T14:19:57;17.40;99.90
7512;DHT22;9999;48.780;9.146;2023-08-07T14:22:24;17.50;99.90
7512;DHT22;9999;48.780;9.146;2023-08-07T14:24:51;17.50;99.90
7512;DHT22;9999;48.780;9.146;2023-08-07T14:27:18;17.40;99.90
7512;DHT22;9999;48.780;9.146;2023-08-07T14:29:44;17.20;99.90
7512;DHT22;9999;48.780;9.146;2023-08-07T14:32:12;17.20;99.90
7512;DHT22;9999;48.780;9.146;2023-08-07T14:34:39;17.10;99.90
7512;DHT22;9999;48.780;9.146;2023-08-07T14:37:06;17.00;99.90
7512;DHT22;9999;48.780;9.146;2023-08-07T14:39:33;17.10;99.90
7512;DHT22;9999;48.780;9.146;2023-08-07T14:42:00;17.20;99.90
7512;DHT22;9999;48.780;9.146;2023-08-07T14:44:27;17.30;99.90
7512;DHT22;9999;48.780;9.146;2023-08-07T14:46:55;17.50;99.90
7512;DHT22;9999;48.780;9.146;2023-08-07T14:49:23;17.40;99.90
7512;DHT22;9999;48.780;9.146;2023-08-07T14:51:49;17.60;99.90
7512;DHT22;9999;48.780;9.146;2023-08-07T14:54:16;17.70;99.90
7512;DHT22;9999;48.780;9.146;2023-08-07T14:56:43;17.80;99.90
7512;DHT22;9999;48.780;9.146;2023-08-07T14:59:10;17.90;99.90
7512;DHT22;9999;48.780;9.146;2023-08-07T15:01:37;18.20;99.90
7512;DHT22;9999;48.780;9.146;2023-08-07T15:04:04;18.30;99.90
7512;DHT22;9999;48.780;9.146;2023-08-07T15:06:32;18.40;99.90
7512;DHT22;9999;48.780;9.146;2023-08-07T15:08:59;18.60;99.90
7512;DHT22;9999;48.780;9.146;2023-08-07T15:11:26;18.50;99.90
7512;DHT22;9999;48.780;9.146;2023-08-07T15:13:53;18.10;99.90
7512;DHT22;9999;48.780;9.146;2023-08-07T15:16:20;18.00;99.90
7512;DHT22;9999;48.780;9.146;2023-08-07T15:18:46;17.80;99.90
7512;DHT22;9999;48.780;9.146;2023-08-07T15:21:13;17.70;99.90
7512;DHT22;9999;48.780;9.146;2023-08-07T15:23:41;17.40;99.90
7512;DHT22;9999;48.780;9.146;2023-08-07T15:26:08;17.40;99.90
7512;DHT22;9999;48.780;9.146;2023-08-07T15:28:35;17.30;99.90
7512;DHT22;9999;48.780;9.146;2023-08-07T15:31:01;17.40;99.90
7512;DHT22;9999;48.780;9.146;2023-08-07T15:33:28;17.30;99.90
7512;DHT22;9999;48.780;9.146;2023-08-07T15:35:55;17.40;99.90
7512;DHT22;9999;48.780;9.146;2023-08-07T15:38:23;17.30;99.90
7512;DHT22;9999;48.780;9.146;2023-08-07T15:40:51;17.20;99.90
7512;DHT22;9999;48.780;9.146;2023-08-07T15:43:18;17.20;99.90
7512;DHT22;9999;48.780;9.146;2023-08-07T15:45:45;17.30;99.90
7512;DHT22;9999;48.780;9.146;2023-08-07T15:48:13;17.30;99.90
7512;DHT22;9999;48.780;9.146;2023-08-07T15:50:39;17.30;99.90
7512;DHT22;9999;48.780;9.146;2023-08-07T15:53:06;17.50;99.90
7512;DHT22;9999;48.780;9.146;2023-08-07T15:55:33;17.60;99.90
7512;DHT22;9999;48.780;9.146;2023-08-07T15:58:03;17.70;99.90
7512;DHT22;9999;48.780;9.146;2023-08-07T16:00:30;17.60;99.90
7512;DHT22;9999;48.780;9.146;2023-08-07T16:03:00;17.40;99.90
7512;DHT22;9999;48.780;9.146;2023-08-07T16:05:27;17.40;99.90